Caddo, Louisiana
Current Conditions -  °F | °C
As of 5:53 PM on Wednesday 28 Jan 2015 (Local Time) from KDTN Reporting Station
Clear Clear  
Wind Chill: 67°   Ceiling: Unl
Heat Index: 67°   Visibility: 10mi
Dew Point: 41°   Wind: 10mph
Humidity: 39%   Direction: 170°S
Pressure: 30.08"   Gusts: NA
Location:  32.7782°N, 93.9615°W
Report Text: KDTN 282353Z AUTO 17009KT 10SM CLR 19/05 A3008 RMK AO2 SLP183 T01940050 10233 20194 55005 TSNO
Loading
Personal Weather Stations






























Interactive Weather Map New forecast layout! Learn more

10-Day Weather Forecast

Advertisements
Track Severe Weather on mobile